sensor_id;sensor_type;location;lat;lon;timestamp;temperature;humidity
18797;DHT22;9526;52.612;13.300;2024-03-08T00:00:45;0.10;99.90
18797;DHT22;9526;52.612;13.300;2024-03-08T00:03:11;0.00;99.90
18797;DHT22;9526;52.612;13.300;2024-03-08T00:05:35;0.00;99.90
18797;DHT22;9526;52.612;13.300;2024-03-08T00:08:01;0.00;99.90
18797;DHT22;9526;52.612;13.300;2024-03-08T00:10:24;0.00;99.90
18797;DHT22;9526;52.612;13.300;2024-03-08T00:12:50;0.00;99.90
18797;DHT22;9526;52.612;13.300;2024-03-08T00:15:16;-0.10;99.90
18797;DHT22;9526;52.612;13.300;2024-03-08T00:17:41;-0.10;99.90
18797;DHT22;9526;52.612;13.300;2024-03-08T00:20:07;-0.10;99.90
18797;DHT22;9526;52.612;13.300;2024-03-08T00:22:31;-0.10;99.90
18797;DHT22;9526;52.612;13.300;2024-03-08T00:24:55;-0.10;99.90
18797;DHT22;9526;52.612;13.300;2024-03-08T00:27:19;-0.20;99.90
18797;DHT22;9526;52.612;13.300;2024-03-08T00:29:43;-0.20;99.90
18797;DHT22;9526;52.612;13.300;2024-03-08T00:32:07;-0.20;99.90
18797;DHT22;9526;52.612;13.300;2024-03-08T00:34:31;-0.20;99.90
18797;DHT22;9526;52.612;13.300;2024-03-08T00:36:58;-0.20;99.90
18797;DHT22;9526;52.612;13.300;2024-03-08T00:39:21;-0.20;99.90
18797;DHT22;9526;52.612;13.300;2024-03-08T00:41:45;-0.20;99.90
18797;DHT22;9526;52.612;13.300;2024-03-08T00:44:09;-0.30;99.90
18797;DHT22;9526;52.612;13.300;2024-03-08T00:46:33;-0.30;99.90
18797;DHT22;9526;52.612;13.300;2024-03-08T00:48:57;-0.30;99.90
18797;DHT22;9526;52.612;13.300;2024-03-08T00:51:21;-0.30;99.90
18797;DHT22;9526;52.612;13.300;2024-03-08T00:53:46;-0.30;99.90
18797;DHT22;9526;52.612;13.300;2024-03-08T00:56:09;-0.30;99.90
18797;DHT22;9526;52.612;13.300;2024-03-08T00:58:33;-0.30;99.90
18797;DHT22;9526;52.612;13.300;2024-03-08T01:00:57;-0.40;99.90
18797;DHT22;9526;52.612;13.300;2024-03-08T01:03:22;-0.40;99.90
18797;DHT22;9526;52.612;13.300;2024-03-08T01:05:44;-0.40;99.90
18797;DHT22;9526;52.612;13.300;2024-03-08T01:08:08;-0.40;99.90
18797;DHT22;9526;52.612;13.300;2024-03-08T01:10:35;-0.40;99.90
18797;DHT22;9526;52.612;13.300;2024-03-08T01:12:59;-0.40;99.90
18797;DHT22;9526;52.612;13.300;2024-03-08T01:15:23;-0.40;99.90
18797;DHT22;9526;52.612;13.300;2024-03-08T01:17:46;-0.50;99.90
18797;DHT22;9526;52.612;13.300;2024-03-08T01:20:10;-0.50;99.90
18797;DHT22;9526;52.612;13.300;2024-03-08T01:22:34;-0.50;99.90
18797;DHT22;9526;52.612;13.300;2024-03-08T01:24:58;-0.50;99.90
18797;DHT22;9526;52.612;13.300;2024-03-08T01:27:24;-0.50;99.90
18797;DHT22;9526;52.612;13.300;2024-03-08T01:29:48;-0.50;99.90
18797;DHT22;9526;52.612;13.300;2024-03-08T01:32:12;-0.60;99.90
18797;DHT22;9526;52.612;13.300;2024-03-08T01:34:35;-0.60;99.90
18797;DHT22;9526;52.612;13.300;2024-03-08T01:36:59;-0.60;99.90
18797;DHT22;9526;52.612;13.300;2024-03-08T01:39:23;-0.60;99.90
18797;DHT22;9526;52.612;13.300;2024-03-08T01:41:46;-0.60;99.90
18797;DHT22;9526;52.612;13.300;2024-03-08T01:44:11;-0.70;99.90
18797;DHT22;9526;52.612;13.300;2024-03-08T01:46:39;-0.70;99.90
18797;DHT22;9526;52.612;13.300;2024-03-08T01:49:03;-0.70;99.90
18797;DHT22;9526;52.612;13.300;2024-03-08T01:51:28;-0.70;99.90
18797;DHT22;9526;52.612;13.300;2024-03-08T01:53:53;-0.70;99.90
18797;DHT22;9526;52.612;13.300;2024-03-08T01:56:17;-0.70;99.90
18797;DHT22;9526;52.612;13.300;2024-03-08T01:58:42;-0.70;99.90
18797;DHT22;9526;52.612;13.300;2024-03-08T02:01:07;-0.80;99.90
18797;DHT22;9526;52.612;13.300;2024-03-08T02:03:31;-0.80;99.90
18797;DHT22;9526;52.612;13.300;2024-03-08T02:05:55;-0.80;99.90
18797;DHT22;9526;52.612;13.300;2024-03-08T02:08:21;-0.80;99.90
18797;DHT22;9526;52.612;13.300;2024-03-08T02:10:45;-0.80;99.90
18797;DHT22;9526;52.612;13.300;2024-03-08T02:13:10;-0.90;99.90
18797;DHT22;9526;52.612;13.300;2024-03-08T02:15:50;-0.80;99.90
18797;DHT22;9526;52.612;13.300;2024-03-08T02:18:16;-0.90;99.90
18797;DHT22;9526;52.612;13.300;2024-03-08T02:20:42;-0.90;99.90
18797;DHT22;9526;52.612;13.300;2024-03-08T02:23:05;-0.90;99.90
18797;DHT22;9526;52.612;13.300;2024-03-08T02:25:29;-0.90;99.90
18797;DHT22;9526;52.612;13.300;2024-03-08T02:27:53;-0.90;99.90
18797;DHT22;9526;52.612;13.300;2024-03-08T02:30:17;-0.90;99.90
18797;DHT22;9526;52.612;13.300;2024-03-08T02:32:41;-0.90;99.90
18797;DHT22;9526;52.612;13.300;2024-03-08T02:35:06;-0.90;99.90
18797;DHT22;9526;52.612;13.300;2024-03-08T02:37:31;-0.90;99.90
18797;DHT22;9526;52.612;13.300;2024-03-08T02:39:55;-0.90;99.90
18797;DHT22;9526;52.612;13.300;2024-03-08T02:42:19;-0.90;99.90
18797;DHT22;9526;52.612;13.300;2024-03-08T02:44:43;-0.90;99.90
18797;DHT22;9526;52.612;13.300;2024-03-08T02:47:07;-1.00;99.90
18797;DHT22;9526;52.612;13.300;2024-03-08T02:49:30;-1.00;99.90
18797;DHT22;9526;52.612;13.300;2024-03-08T02:51:54;-1.00;99.90
18797;DHT22;9526;52.612;13.300;2024-03-08T02:54:20;-1.00;99.90
18797;DHT22;9526;52.612;13.300;2024-03-08T02:56:44;-1.00;99.90
18797;DHT22;9526;52.612;13.300;2024-03-08T02:59:08;-1.00;99.90
18797;DHT22;9526;52.612;13.300;2024-03-08T03:01:33;-1.00;99.90
18797;DHT22;9526;52.612;13.300;2024-03-08T03:03:58;-1.10;99.90
18797;DHT22;9526;52.612;13.300;2024-03-08T03:06:22;-1.10;99.90
18797;DHT22;9526;52.612;13.300;2024-03-08T03:08:46;-1.10;99.90
18797;DHT22;9526;52.612;13.300;2024-03-08T03:11:12;-1.10;99.90
18797;DHT22;9526;52.612;13.300;2024-03-08T03:13:36;-1.10;99.90
18797;DHT22;9526;52.612;13.300;2024-03-08T03:16:00;-1.10;99.90
18797;DHT22;9526;52.612;13.300;2024-03-08T03:18:25;-1.10;99.90
18797;DHT22;9526;52.612;13.300;2024-03-08T03:20:49;-1.10;99.90
18797;DHT22;9526;52.612;13.300;2024-03-08T03:23:13;-1.20;99.90
18797;DHT22;9526;52.612;13.300;2024-03-08T03:25:42;-1.20;99.90
18797;DHT22;9526;52.612;13.300;2024-03-08T03:28:09;-1.20;99.90
18797;DHT22;9526;52.612;13.300;2024-03-08T03:30:37;-1.20;99.90
18797;DHT22;9526;52.612;13.300;2024-03-08T03:33:01;-1.20;99.90
18797;DHT22;9526;52.612;13.300;2024-03-08T03:35:30;-1.20;99.90
18797;DHT22;9526;52.612;13.300;2024-03-08T03:37:54;-1.20;99.90
18797;DHT22;9526;52.612;13.300;2024-03-08T03:40:28;-1.30;99.90
18797;DHT22;9526;52.612;13.300;2024-03-08T03:42:52;-1.30;99.90
18797;DHT22;9526;52.612;13.300;2024-03-08T03:45:17;-1.20;99.90
18797;DHT22;9526;52.612;13.300;2024-03-08T03:47:43;-1.30;99.90
18797;DHT22;9526;52.612;13.300;2024-03-08T03:50:08;-1.30;99.90
18797;DHT22;9526;52.612;13.300;2024-03-08T03:52:32;-1.30;99.90
18797;DHT22;9526;52.612;13.300;2024-03-08T03:54:56;-1.40;99.90
18797;DHT22;9526;52.612;13.300;2024-03-08T03:57:20;-1.40;99.90
18797;DHT22;9526;52.612;13.300;2024-03-08T03:59:45;-1.40;99.90
18797;DHT22;9526;52.612;13.300;2024-03-08T04:02:11;-1.40;99.90
18797;DHT22;9526;52.612;13.300;2024-03-08T04:04:35;-1.40;99.90
18797;DHT22;9526;52.612;13.300;2024-03-08T04:06:58;-1.40;99.90
18797;DHT22;9526;52.612;13.300;2024-03-08T04:09:24;-1.40;99.90
18797;DHT22;9526;52.612;13.300;2024-03-08T04:11:48;-1.40;99.90
18797;DHT22;9526;52.612;13.300;2024-03-08T04:14:12;-1.40;99.90
18797;DHT22;9526;52.612;13.300;2024-03-08T04:16:36;-1.50;99.90
18797;DHT22;9526;52.612;13.300;2024-03-08T04:19:02;-1.40;99.90
18797;DHT22;9526;52.612;13.300;2024-03-08T04:21:26;-1.40;99.90
18797;DHT22;9526;52.612;13.300;2024-03-08T04:23:50;-1.40;99.90
18797;DHT22;9526;52.612;13.300;2024-03-08T04:26:13;-1.40;99.90
18797;DHT22;9526;52.612;13.300;2024-03-08T04:28:40;-1.50;99.90
18797;DHT22;9526;52.612;13.300;2024-03-08T04:31:04;-1.50;99.90
18797;DHT22;9526;52.612;13.300;2024-03-08T04:33:28;-1.50;99.90
18797;DHT22;9526;52.612;13.300;2024-03-08T04:35:53;-1.50;99.90
18797;DHT22;9526;52.612;13.300;2024-03-08T04:38:17;-1.50;99.90
18797;DHT22;9526;52.612;13.300;2024-03-08T04:40:41;-1.50;99.90
18797;DHT22;9526;52.612;13.300;2024-03-08T04:43:05;-1.50;99.90
18797;DHT22;9526;52.612;13.300;2024-03-08T04:45:30;-1.50;99.90
18797;DHT22;9526;52.612;13.300;2024-03-08T04:47:54;-1.50;99.90
18797;DHT22;9526;52.612;13.300;2024-03-08T04:50:18;-1.40;99.90
18797;DHT22;9526;52.612;13.300;2024-03-08T04:52:43;-1.50;99.90
18797;DHT22;9526;52.612;13.300;2024-03-08T04:55:07;-1.50;99.90
18797;DHT22;9526;52.612;13.300;2024-03-08T04:57:31;-1.60;99.90
18797;DHT22;9526;52.612;13.300;2024-03-08T04:59:55;-1.60;99.90
18797;DHT22;9526;52.612;13.300;2024-03-08T05:02:21;-1.40;99.90
18797;DHT22;9526;52.612;13.300;2024-03-08T05:04:45;-1.40;99.90
18797;DHT22;9526;52.612;13.300;2024-03-08T05:07:09;-1.60;99.90
18797;DHT22;9526;52.612;13.300;2024-03-08T05:09:34;-1.60;99.90
18797;DHT22;9526;52.612;13.300;2024-03-08T05:11:58;-1.60;99.90
18797;DHT22;9526;52.612;13.300;2024-03-08T05:14:24;-1.50;99.90
18797;DHT22;9526;52.612;13.300;2024-03-08T05:16:47;-1.60;99.90
18797;DHT22;9526;52.612;13.300;2024-03-08T05:19:11;-1.60;99.90
18797;DHT22;9526;52.612;13.300;2024-03-08T05:21:35;-1.60;99.90
18797;DHT22;9526;52.612;13.300;2024-03-08T05:23:59;-1.60;99.90
18797;DHT22;9526;52.612;13.300;2024-03-08T05:26:24;-1.60;99.90
18797;DHT22;9526;52.612;13.300;2024-03-08T05:28:48;-1.60;99.90
18797;DHT22;9526;52.612;13.300;2024-03-08T05:31:18;-1.60;99.90
18797;DHT22;9526;52.612;13.300;2024-03-08T05:33:44;-1.70;99.90
18797;DHT22;9526;52.612;13.300;2024-03-08T05:36:08;-1.70;99.90
18797;DHT22;9526;52.612;13.300;2024-03-08T05:38:34;-1.60;99.90
18797;DHT22;9526;52.612;13.300;2024-03-08T05:40:57;-1.70;99.90
18797;DHT22;9526;52.612;13.300;2024-03-08T05:43:23;-1.60;99.90
18797;DHT22;9526;52.612;13.300;2024-03-08T05:45:47;-1.70;99.90
18797;DHT22;9526;52.612;13.300;2024-03-08T05:48:10;-1.70;99.90
18797;DHT22;9526;52.612;13.300;2024-03-08T05:50:35;-1.70;99.90
18797;DHT22;9526;52.612;13.300;2024-03-08T05:52:58;-1.70;99.90
18797;DHT22;9526;52.612;13.300;2024-03-08T05:55:22;-1.70;99.90
18797;DHT22;9526;52.612;13.300;2024-03-08T05:57:47;-1.70;99.90
18797;DHT22;9526;52.612;13.300;2024-03-08T06:00:12;-1.60;99.90
18797;DHT22;9526;52.612;13.300;2024-03-08T06:02:38;-1.60;99.90
18797;DHT22;9526;52.612;13.300;2024-03-08T06:05:04;-1.60;99.90
18797;DHT22;9526;52.612;13.300;2024-03-08T06:07:29;-1.60;99.90
18797;DHT22;9526;52.612;13.300;2024-03-08T06:09:52;-1.60;99.90
18797;DHT22;9526;52.612;13.300;2024-03-08T06:12:16;-1.60;99.90
18797;DHT22;9526;52.612;13.300;2024-03-08T06:14:41;-1.60;99.90
18797;DHT22;9526;52.612;13.300;2024-03-08T06:17:06;-1.60;99.90
18797;DHT22;9526;52.612;13.300;2024-03-08T06:19:30;-1.50;99.90
18797;DHT22;9526;52.612;13.300;2024-03-08T06:21:54;-1.50;99.90
18797;DHT22;9526;52.612;13.300;2024-03-08T06:24:18;-1.50;99.90
18797;DHT22;9526;52.612;13.300;2024-03-08T06:26:41;-1.40;99.90
18797;DHT22;9526;52.612;13.300;2024-03-08T06:29:05;-1.40;99.90
18797;DHT22;9526;52.612;13.300;2024-03-08T06:31:29;-1.30;99.90
18797;DHT22;9526;52.612;13.300;2024-03-08T06:33:54;-1.30;99.90
18797;DHT22;9526;52.612;13.300;2024-03-08T06:36:20;-1.20;99.90
18797;DHT22;9526;52.612;13.300;2024-03-08T06:38:45;-1.20;99.90
18797;DHT22;9526;52.612;13.300;2024-03-08T06:41:09;-1.10;99.90
18797;DHT22;9526;52.612;13.300;2024-03-08T06:43:37;-1.10;99.90
18797;DHT22;9526;52.612;13.300;2024-03-08T06:46:02;-1.00;99.90
18797;DHT22;9526;52.612;13.300;2024-03-08T06:48:26;-0.90;99.90
18797;DHT22;9526;52.612;13.300;2024-03-08T06:50:53;-0.80;99.90
18797;DHT22;9526;52.612;13.300;2024-03-08T06:53:17;-0.60;99.90
18797;DHT22;9526;52.612;13.300;2024-03-08T06:55:46;-0.10;99.90
18797;DHT22;9526;52.612;13.300;2024-03-08T06:58:09;0.40;99.90
18797;DHT22;9526;52.612;13.300;2024-03-08T07:00:33;1.10;99.90
18797;DHT22;9526;52.612;13.300;2024-03-08T07:02:58;1.60;99.90
18797;DHT22;9526;52.612;13.300;2024-03-08T07:05:24;2.20;99.90
18797;DHT22;9526;52.612;13.300;2024-03-08T07:07:57;2.80;99.90
18797;DHT22;9526;52.612;13.300;2024-03-08T07:10:21;3.20;99.90
18797;DHT22;9526;52.612;13.300;2024-03-08T07:12:46;3.70;99.90
18797;DHT22;9526;52.612;13.300;2024-03-08T07:15:10;3.80;99.90
18797;DHT22;9526;52.612;13.300;2024-03-08T07:17:36;4.10;99.90
18797;DHT22;9526;52.612;13.300;2024-03-08T07:20:01;4.10;99.90
18797;DHT22;9526;52.612;13.300;2024-03-08T07:22:29;3.90;99.90
18797;DHT22;9526;52.612;13.300;2024-03-08T07:24:55;3.70;99.90
18797;DHT22;9526;52.612;13.300;2024-03-08T07:27:37;3.60;99.90
18797;DHT22;9526;52.612;13.300;2024-03-08T07:30:01;3.50;99.90
18797;DHT22;9526;52.612;13.300;2024-03-08T07:32:27;3.50;99.90
18797;DHT22;9526;52.612;13.300;2024-03-08T07:34:52;3.50;99.90
18797;DHT22;9526;52.612;13.300;2024-03-08T07:37:17;3.40;99.90
18797;DHT22;9526;52.612;13.300;2024-03-08T07:39:42;3.40;99.90
18797;DHT22;9526;52.612;13.300;2024-03-08T07:42:08;3.40;99.90
18797;DHT22;9526;52.612;13.300;2024-03-08T07:44:32;3.30;99.90
18797;DHT22;9526;52.612;13.300;2024-03-08T07:46:56;3.40;99.90
18797;DHT22;9526;52.612;13.300;2024-03-08T07:49:20;3.30;99.90
18797;DHT22;9526;52.612;13.300;2024-03-08T07:51:43;3.40;99.90
18797;DHT22;9526;52.612;13.300;2024-03-08T07:54:07;3.40;99.90
18797;DHT22;9526;52.612;13.300;2024-03-08T07:56:32;3.40;99.90
18797;DHT22;9526;52.612;13.300;2024-03-08T07:58:58;3.50;99.90
18797;DHT22;9526;52.612;13.300;2024-03-08T08:01:22;3.60;99.90
18797;DHT22;9526;52.612;13.300;2024-03-08T08:03:46;3.60;99.90
18797;DHT22;9526;52.612;13.300;2024-03-08T08:06:11;3.60;99.90
18797;DHT22;9526;52.612;13.300;2024-03-08T08:08:38;3.60;99.90
18797;DHT22;9526;52.612;13.300;2024-03-08T08:11:02;3.60;99.90
18797;DHT22;9526;52.612;13.300;2024-03-08T08:13:27;3.60;99.90
18797;DHT22;9526;52.612;13.300;2024-03-08T08:15:56;3.70;99.90
18797;DHT22;9526;52.612;13.300;2024-03-08T08:18:19;3.70;99.90
18797;DHT22;9526;52.612;13.300;2024-03-08T08:20:47;3.70;99.90
18797;DHT22;9526;52.612;13.300;2024-03-08T08:23:10;3.70;99.90
18797;DHT22;9526;52.612;13.300;2024-03-08T08:25:34;3.80;99.90
18797;DHT22;9526;52.612;13.300;2024-03-08T08:27:58;3.90;99.90
18797;DHT22;9526;52.612;13.300;2024-03-08T08:30:22;4.00;99.90
18797;DHT22;9526;52.612;13.300;2024-03-08T08:32:47;4.10;99.90
18797;DHT22;9526;52.612;13.300;2024-03-08T08:35:11;4.30;99.90
18797;DHT22;9526;52.612;13.300;2024-03-08T08:37:35;4.60;99.90
18797;DHT22;9526;52.612;13.300;2024-03-08T08:40:01;5.00;99.90
18797;DHT22;9526;52.612;13.300;2024-03-08T08:42:31;5.50;99.90
18797;DHT22;9526;52.612;13.300;2024-03-08T08:44:55;5.90;99.90
18797;DHT22;9526;52.612;13.300;2024-03-08T08:47:29;6.20;99.90
18797;DHT22;9526;52.612;13.300;2024-03-08T08:49:54;6.50;99.90
18797;DHT22;9526;52.612;13.300;2024-03-08T08:52:19;6.80;99.90
18797;DHT22;9526;52.612;13.300;2024-03-08T08:54:43;7.00;99.90
18797;DHT22;9526;52.612;13.300;2024-03-08T08:57:11;7.20;99.90
18797;DHT22;9526;52.612;13.300;2024-03-08T08:59:36;7.60;99.90
18797;DHT22;9526;52.612;13.300;2024-03-08T09:02:01;7.60;99.90
18797;DHT22;9526;52.612;13.300;2024-03-08T09:04:26;7.70;99.90
18797;DHT22;9526;52.612;13.300;2024-03-08T09:06:52;7.90;99.90
18797;DHT22;9526;52.612;13.300;2024-03-08T09:09:16;8.00;99.90
18797;DHT22;9526;52.612;13.300;2024-03-08T09:11:41;7.90;99.90
18797;DHT22;9526;52.612;13.300;2024-03-08T09:14:05;7.90;99.90
18797;DHT22;9526;52.612;13.300;2024-03-08T09:16:28;8.10;99.90
18797;DHT22;9526;52.612;13.300;2024-03-08T09:18:53;8.30;99.90
18797;DHT22;9526;52.612;13.300;2024-03-08T09:21:17;8.50;99.90
18797;DHT22;9526;52.612;13.300;2024-03-08T09:23:45;8.80;99.90
18797;DHT22;9526;52.612;13.300;2024-03-08T09:26:09;8.90;99.90
18797;DHT22;9526;52.612;13.300;2024-03-08T09:28:46;9.10;99.90
18797;DHT22;9526;52.612;13.300;2024-03-08T09:31:10;9.30;99.90
18797;DHT22;9526;52.612;13.300;2024-03-08T09:33:34;9.30;99.90
18797;DHT22;9526;52.612;13.300;2024-03-08T09:35:58;9.50;99.90
18797;DHT22;9526;52.612;13.300;2024-03-08T09:38:25;9.70;99.90
18797;DHT22;9526;52.612;13.300;2024-03-08T09:40:50;9.80;99.90
18797;DHT22;9526;52.612;13.300;2024-03-08T09:43:15;10.10;99.90
18797;DHT22;9526;52.612;13.300;2024-03-08T09:45:45;10.20;99.90
18797;DHT22;9526;52.612;13.300;2024-03-08T09:48:11;10.50;99.90
18797;DHT22;9526;52.612;13.300;2024-03-08T09:50:36;10.40;99.90
18797;DHT22;9526;52.612;13.300;2024-03-08T09:53:00;10.50;99.90
18797;DHT22;9526;52.612;13.300;2024-03-08T09:55:25;10.50;99.90
18797;DHT22;9526;52.612;13.300;2024-03-08T09:57:55;10.10;99.90
18797;DHT22;9526;52.612;13.300;2024-03-08T10:00:37;9.90;99.90
18797;DHT22;9526;52.612;13.300;2024-03-08T10:03:01;10.00;99.90
18797;DHT22;9526;52.612;13.300;2024-03-08T10:05:25;10.20;99.90
18797;DHT22;9526;52.612;13.300;2024-03-08T10:07:50;10.60;99.90
18797;DHT22;9526;52.612;13.300;2024-03-08T10:10:14;10.80;99.90
18797;DHT22;9526;52.612;13.300;2024-03-08T10:12:38;10.80;99.90
18797;DHT22;9526;52.612;13.300;2024-03-08T10:15:06;11.10;99.90
18797;DHT22;9526;52.612;13.300;2024-03-08T10:17:30;11.10;99.50
18797;DHT22;9526;52.612;13.300;2024-03-08T10:19:55;11.10;99.90
18797;DHT22;9526;52.612;13.300;2024-03-08T10:22:21;11.20;99.90
18797;DHT22;9526;52.612;13.300;2024-03-08T10:24:45;11.20;98.40
18797;DHT22;9526;52.612;13.300;2024-03-08T10:27:08;11.50;99.00
18797;DHT22;9526;52.612;13.300;2024-03-08T10:29:33;11.00;99.60
18797;DHT22;9526;52.612;13.300;2024-03-08T10:31:58;11.10;99.00
18797;DHT22;9526;52.612;13.300;2024-03-08T10:34:23;11.20;99.20
18797;DHT22;9526;52.612;13.300;2024-03-08T10:36:50;11.10;98.40
18797;DHT22;9526;52.612;13.300;2024-03-08T10:39:21;11.60;98.90
18797;DHT22;9526;52.612;13.300;2024-03-08T10:41:52;11.70;97.70
18797;DHT22;9526;52.612;13.300;2024-03-08T10:44:35;11.40;97.00
18797;DHT22;9526;52.612;13.300;2024-03-08T10:47:15;11.60;98.70
18797;DHT22;9526;52.612;13.300;2024-03-08T10:49:48;11.90;96.40
18797;DHT22;9526;52.612;13.300;2024-03-08T10:52:15;11.70;95.70
18797;DHT22;9526;52.612;13.300;2024-03-08T10:54:41;11.70;96.10
18797;DHT22;9526;52.612;13.300;2024-03-08T10:57:07;11.80;96.30
18797;DHT22;9526;52.612;13.300;2024-03-08T10:59:32;12.00;95.90
18797;DHT22;9526;52.612;13.300;2024-03-08T11:01:57;11.80;96.30
18797;DHT22;9526;52.612;13.300;2024-03-08T11:04:23;11.80;94.50
18797;DHT22;9526;52.612;13.300;2024-03-08T11:06:47;11.70;95.30
18797;DHT22;9526;52.612;13.300;2024-03-08T11:09:29;11.60;95.10
18797;DHT22;9526;52.612;13.300;2024-03-08T11:12:18;11.30;95.10
18797;DHT22;9526;52.612;13.300;2024-03-08T11:14:44;11.10;94.50
18797;DHT22;9526;52.612;13.300;2024-03-08T11:17:11;11.10;96.10
18797;DHT22;9526;52.612;13.300;2024-03-08T11:19:46;11.00;94.70
18797;DHT22;9526;52.612;13.300;2024-03-08T11:22:21;11.00;97.00
18797;DHT22;9526;52.612;13.300;2024-03-08T11:24:49;11.30;97.60
18797;DHT22;9526;52.612;13.300;2024-03-08T11:27:12;11.30;97.00
18797;DHT22;9526;52.612;13.300;2024-03-08T11:29:37;11.40;96.70
18797;DHT22;9526;52.612;13.300;2024-03-08T11:32:07;11.40;96.10
18797;DHT22;9526;52.612;13.300;2024-03-08T11:34:32;11.50;96.70
18797;DHT22;9526;52.612;13.300;2024-03-08T11:36:57;11.40;95.70
18797;DHT22;9526;52.612;13.300;2024-03-08T11:39:22;11.20;95.10
18797;DHT22;9526;52.612;13.300;2024-03-08T11:41:47;11.30;96.50
18797;DHT22;9526;52.612;13.300;2024-03-08T11:44:11;11.50;96.00
18797;DHT22;9526;52.612;13.300;2024-03-08T11:46:38;11.50;96.10
18797;DHT22;9526;52.612;13.300;2024-03-08T11:49:07;11.50;95.80
18797;DHT22;9526;52.612;13.300;2024-03-08T11:51:31;11.60;95.50
18797;DHT22;9526;52.612;13.300;2024-03-08T11:53:57;11.40;95.70
18797;DHT22;9526;52.612;13.300;2024-03-08T11:56:21;11.50;95.40
18797;DHT22;9526;52.612;13.300;2024-03-08T11:58:53;11.60;94.30
18797;DHT22;9526;52.612;13.300;2024-03-08T12:01:20;11.30;94.30
18797;DHT22;9526;52.612;13.300;2024-03-08T12:03:52;11.30;96.00
18797;DHT22;9526;52.612;13.300;2024-03-08T12:06:16;11.10;95.10
18797;DHT22;9526;52.612;13.300;2024-03-08T12:08:41;10.90;95.10
18797;DHT22;9526;52.612;13.300;2024-03-08T12:11:07;10.90;95.90
18797;DHT22;9526;52.612;13.300;2024-03-08T12:13:34;11.00;96.10
18797;DHT22;9526;52.612;13.300;2024-03-08T12:15:58;11.00;96.50
18797;DHT22;9526;52.612;13.300;2024-03-08T12:18:22;10.90;95.90
18797;DHT22;9526;52.612;13.300;2024-03-08T12:20:46;10.90;96.50
18797;DHT22;9526;52.612;13.300;2024-03-08T12:23:15;10.90;96.00
18797;DHT22;9526;52.612;13.300;2024-03-08T12:25:39;10.80;95.30
18797;DHT22;9526;52.612;13.300;2024-03-08T12:28:11;10.60;96.10
18797;DHT22;9526;52.612;13.300;2024-03-08T12:30:45;10.70;96.30
18797;DHT22;9526;52.612;13.300;2024-03-08T12:33:10;10.50;95.00
18797;DHT22;9526;52.612;13.300;2024-03-08T12:35:35;10.40;95.30
18797;DHT22;9526;52.612;13.300;2024-03-08T12:37:59;10.40;95.10
18797;DHT22;9526;52.612;13.300;2024-03-08T12:40:28;10.20;95.80
18797;DHT22;9526;52.612;13.300;2024-03-08T12:42:54;10.20;95.20
18797;DHT22;9526;52.612;13.300;2024-03-08T12:45:19;10.20;96.80
18797;DHT22;9526;52.612;13.300;2024-03-08T12:47:47;10.20;95.90
18797;DHT22;9526;52.612;13.300;2024-03-08T12:50:11;10.20;96.30
18797;DHT22;9526;52.612;13.300;2024-03-08T12:52:35;10.20;96.00
18797;DHT22;9526;52.612;13.300;2024-03-08T12:54:59;10.20;95.60
18797;DHT22;9526;52.612;13.300;2024-03-08T12:57:25;10.10;96.00
18797;DHT22;9526;52.612;13.300;2024-03-08T12:59:50;10.10;94.90
18797;DHT22;9526;52.612;13.300;2024-03-08T13:02:17;10.10;94.90
18797;DHT22;9526;52.612;13.300;2024-03-08T13:04:42;9.90;95.00
18797;DHT22;9526;52.612;13.300;2024-03-08T13:07:06;9.90;95.00
18797;DHT22;9526;52.612;13.300;2024-03-08T13:09:30;10.00;94.80
18797;DHT22;9526;52.612;13.300;2024-03-08T13:11:55;10.00;95.10
18797;DHT22;9526;52.612;13.300;2024-03-08T13:14:21;10.00;95.10
18797;DHT22;9526;52.612;13.300;2024-03-08T13:16:45;10.00;95.00
18797;DHT22;9526;52.612;13.300;2024-03-08T13:19:12;10.00;94.80
18797;DHT22;9526;52.612;13.300;2024-03-08T13:21:36;10.10;95.10
18797;DHT22;9526;52.612;13.300;2024-03-08T13:24:00;10.00;94.80
18797;DHT22;9526;52.612;13.300;2024-03-08T13:26:25;10.00;95.60
18797;DHT22;9526;52.612;13.300;2024-03-08T13:28:55;10.10;95.20
18797;DHT22;9526;52.612;13.300;2024-03-08T13:31:20;10.00;95.40
18797;DHT22;9526;52.612;13.300;2024-03-08T13:33:45;10.00;95.70
18797;DHT22;9526;52.612;13.300;2024-03-08T13:36:11;10.00;95.80
18797;DHT22;9526;52.612;13.300;2024-03-08T13:38:37;10.00;96.10
18797;DHT22;9526;52.612;13.300;2024-03-08T13:41:01;10.00;97.10
18797;DHT22;9526;52.612;13.300;2024-03-08T13:43:25;10.00;96.30
18797;DHT22;9526;52.612;13.300;2024-03-08T13:45:50;10.00;95.90
18797;DHT22;9526;52.612;13.300;2024-03-08T13:48:14;10.00;96.60
18797;DHT22;9526;52.612;13.300;2024-03-08T13:50:38;9.90;95.80
18797;DHT22;9526;52.612;13.300;2024-03-08T13:53:04;10.00;96.10
18797;DHT22;9526;52.612;13.300;2024-03-08T13:55:28;10.00;96.50
18797;DHT22;9526;52.612;13.300;2024-03-08T13:57:53;10.00;96.20
18797;DHT22;9526;52.612;13.300;2024-03-08T14:00:17;10.00;96.30
18797;DHT22;9526;52.612;13.300;2024-03-08T14:02:44;9.90;96.60
18797;DHT22;9526;52.612;13.300;2024-03-08T14:05:08;9.90;96.40
18797;DHT22;9526;52.612;13.300;2024-03-08T14:07:34;9.80;96.60
18797;DHT22;9526;52.612;13.300;2024-03-08T14:09:59;9.80;96.80
18797;DHT22;9526;52.612;13.300;2024-03-08T14:12:23;9.90;97.40
18797;DHT22;9526;52.612;13.300;2024-03-08T14:14:50;9.80;96.90
18797;DHT22;9526;52.612;13.300;2024-03-08T14:17:14;9.90;97.80
18797;DHT22;9526;52.612;13.300;2024-03-08T14:19:39;9.80;97.80
18797;DHT22;9526;52.612;13.300;2024-03-08T14:22:03;9.80;97.10
18797;DHT22;9526;52.612;13.300;2024-03-08T14:24:27;9.70;97.60
18797;DHT22;9526;52.612;13.300;2024-03-08T14:26:52;9.60;97.50
18797;DHT22;9526;52.612;13.300;2024-03-08T14:29:16;9.60;98.20
18797;DHT22;9526;52.612;13.300;2024-03-08T14:31:41;9.60;98.30
18797;DHT22;9526;52.612;13.300;2024-03-08T14:34:05;9.70;97.80
18797;DHT22;9526;52.612;13.300;2024-03-08T14:36:29;9.70;98.00
18797;DHT22;9526;52.612;13.300;2024-03-08T14:38:53;9.60;97.80
18797;DHT22;9526;52.612;13.300;2024-03-08T14:41:17;9.50;97.80
18797;DHT22;9526;52.612;13.300;2024-03-08T14:43:43;9.50;97.70
18797;DHT22;9526;52.612;13.300;2024-03-08T14:46:08;9.50;98.30
18797;DHT22;9526;52.612;13.300;2024-03-08T14:48:31;9.50;97.60
18797;DHT22;9526;52.612;13.300;2024-03-08T14:50:55;9.40;97.40
18797;DHT22;9526;52.612;13.300;2024-03-08T14:53:19;9.40;97.50
18797;DHT22;9526;52.612;13.300;2024-03-08T14:55:43;9.40;97.40
18797;DHT22;9526;52.612;13.300;2024-03-08T14:58:09;9.40;96.90
18797;DHT22;9526;52.612;13.300;2024-03-08T15:00:34;9.30;97.40
18797;DHT22;9526;52.612;13.300;2024-03-08T15:03:00;9.40;97.20
18797;DHT22;9526;52.612;13.300;2024-03-08T15:05:27;9.30;97.70
18797;DHT22;9526;52.612;13.300;2024-03-08T15:07:54;9.30;97.10
18797;DHT22;9526;52.612;13.300;2024-03-08T15:10:18;9.30;96.80
18797;DHT22;9526;52.612;13.300;2024-03-08T15:12:45;9.30;97.10
18797;DHT22;9526;52.612;13.300;2024-03-08T15:15:14;9.30;97.00
18797;DHT22;9526;52.612;13.300;2024-03-08T15:17:41;9.40;97.60
18797;DHT22;9526;52.612;13.300;2024-03-08T15:20:06;9.30;97.90
18797;DHT22;9526;52.612;13.300;2024-03-08T15:22:41;9.30;98.50